sensor_id;sensor_type;location;lat;lon;timestamp;temperature;humidity
44705;DHT22;30431;48.520;9.046;2023-07-09T00:02:15;18.90;92.90
44705;DHT22;30431;48.520;9.046;2023-07-09T00:04:43;18.90;93.30
44705;DHT22;30431;48.520;9.046;2023-07-09T00:07:21;18.80;93.50
44705;DHT22;30431;48.520;9.046;2023-07-09T00:09:53;18.80;93.80
44705;DHT22;30431;48.520;9.046;2023-07-09T00:12:20;18.80;93.90
44705;DHT22;30431;48.520;9.046;2023-07-09T00:14:47;18.70;94.00
44705;DHT22;30431;48.520;9.046;2023-07-09T00:19:51;18.70;94.20
44705;DHT22;30431;48.520;9.046;2023-07-09T00:22:19;18.70;94.20
44705;DHT22;30431;48.520;9.046;2023-07-09T00:24:48;18.70;94.30
44705;DHT22;30431;48.520;9.046;2023-07-09T00:27:19;18.70;94.50
44705;DHT22;30431;48.520;9.046;2023-07-09T00:29:46;18.60;94.60
44705;DHT22;30431;48.520;9.046;2023-07-09T00:32:19;18.60;94.70
44705;DHT22;30431;48.520;9.046;2023-07-09T00:34:48;18.60;94.90
44705;DHT22;30431;48.520;9.046;2023-07-09T00:37:23;18.60;95.00
44705;DHT22;30431;48.520;9.046;2023-07-09T00:39:52;18.60;95.20
44705;DHT22;30431;48.520;9.046;2023-07-09T00:42:22;18.60;95.40
44705;DHT22;30431;48.520;9.046;2023-07-09T00:44:51;18.60;95.50
44705;DHT22;30431;48.520;9.046;2023-07-09T00:47:28;18.50;95.90
44705;DHT22;30431;48.520;9.046;2023-07-09T00:53:08;18.40;96.40
44705;DHT22;30431;48.520;9.046;2023-07-09T00:55:39;18.30;96.90
44705;DHT22;30431;48.520;9.046;2023-07-09T00:58:11;18.30;97.50
44705;DHT22;30431;48.520;9.046;2023-07-09T01:00:51;18.20;97.80
44705;DHT22;30431;48.520;9.046;2023-07-09T01:03:31;18.20;98.30
44705;DHT22;30431;48.520;9.046;2023-07-09T01:06:03;18.10;98.80
44705;DHT22;30431;48.520;9.046;2023-07-09T01:08:39;18.00;99.10
44705;DHT22;30431;48.520;9.046;2023-07-09T01:11:20;18.00;99.70
44705;DHT22;30431;48.520;9.046;2023-07-09T01:13:54;18.00;99.80
44705;DHT22;30431;48.520;9.046;2023-07-09T01:16:28;17.90;99.80
44705;DHT22;30431;48.520;9.046;2023-07-09T01:18:56;17.90;99.90
44705;DHT22;30431;48.520;9.046;2023-07-09T01:21:23;17.90;99.90
44705;DHT22;30431;48.520;9.046;2023-07-09T01:23:50;17.90;99.90
44705;DHT22;30431;48.520;9.046;2023-07-09T01:26:24;17.90;99.90
44705;DHT22;30431;48.520;9.046;2023-07-09T01:28:55;17.80;99.90
44705;DHT22;30431;48.520;9.046;2023-07-09T01:31:22;17.80;99.90
44705;DHT22;30431;48.520;9.046;2023-07-09T01:33:50;17.80;99.90
44705;DHT22;30431;48.520;9.046;2023-07-09T01:36:19;17.70;99.90
44705;DHT22;30431;48.520;9.046;2023-07-09T01:38:52;17.70;99.90
44705;DHT22;30431;48.520;9.046;2023-07-09T01:41:20;17.70;99.90
44705;DHT22;30431;48.520;9.046;2023-07-09T01:43:47;17.70;99.90
44705;DHT22;30431;48.520;9.046;2023-07-09T01:46:17;17.70;99.90
44705;DHT22;30431;48.520;9.046;2023-07-09T01:48:44;17.70;99.90
44705;DHT22;30431;48.520;9.046;2023-07-09T01:51:15;17.70;99.90
44705;DHT22;30431;48.520;9.046;2023-07-09T01:53:44;17.70;99.90
44705;DHT22;30431;48.520;9.046;2023-07-09T01:56:13;17.70;99.90
44705;DHT22;30431;48.520;9.046;2023-07-09T01:58:42;17.70;99.90
44705;DHT22;30431;48.520;9.046;2023-07-09T02:01:11;17.60;99.90
44705;DHT22;30431;48.520;9.046;2023-07-09T02:03:38;17.60;99.90
44705;DHT22;30431;48.520;9.046;2023-07-09T02:06:05;17.50;99.90
44705;DHT22;30431;48.520;9.046;2023-07-09T02:08:39;17.50;99.90
44705;DHT22;30431;48.520;9.046;2023-07-09T02:11:08;17.40;99.90
44705;DHT22;30431;48.520;9.046;2023-07-09T02:13:36;17.40;99.90
44705;DHT22;30431;48.520;9.046;2023-07-09T02:16:05;17.40;99.90
44705;DHT22;30431;48.520;9.046;2023-07-09T02:18:35;17.40;99.90
44705;DHT22;30431;48.520;9.046;2023-07-09T02:21:02;17.30;99.90
44705;DHT22;30431;48.520;9.046;2023-07-09T02:23:29;17.30;99.90
44705;DHT22;30431;48.520;9.046;2023-07-09T02:26:00;17.30;99.90
44705;DHT22;30431;48.520;9.046;2023-07-09T02:28:28;17.30;99.90
44705;DHT22;30431;48.520;9.046;2023-07-09T02:30:55;17.20;99.90
44705;DHT22;30431;48.520;9.046;2023-07-09T02:33:22;17.20;99.90
44705;DHT22;30431;48.520;9.046;2023-07-09T02:35:50;17.20;99.90
44705;DHT22;30431;48.520;9.046;2023-07-09T02:38:19;17.20;99.90
44705;DHT22;30431;48.520;9.046;2023-07-09T02:40:46;17.10;99.90
44705;DHT22;30431;48.520;9.046;2023-07-09T02:43:15;17.10;99.90
44705;DHT22;30431;48.520;9.046;2023-07-09T02:45:43;17.10;99.90
44705;DHT22;30431;48.520;9.046;2023-07-09T02:48:10;17.10;99.90
44705;DHT22;30431;48.520;9.046;2023-07-09T02:50:41;17.00;99.90
44705;DHT22;30431;48.520;9.046;2023-07-09T02:53:08;17.00;99.90
44705;DHT22;30431;48.520;9.046;2023-07-09T02:55:40;16.90;99.90
44705;DHT22;30431;48.520;9.046;2023-07-09T02:58:11;16.90;99.90
44705;DHT22;30431;48.520;9.046;2023-07-09T03:00:40;16.80;99.90
44705;DHT22;30431;48.520;9.046;2023-07-09T03:03:07;16.80;99.90
44705;DHT22;30431;48.520;9.046;2023-07-09T03:05:34;16.70;99.90
44705;DHT22;30431;48.520;9.046;2023-07-09T03:08:01;16.70;99.90
44705;DHT22;30431;48.520;9.046;2023-07-09T03:10:28;16.60;99.90
44705;DHT22;30431;48.520;9.046;2023-07-09T03:12:55;16.60;99.90
44705;DHT22;30431;48.520;9.046;2023-07-09T03:15:22;16.60;99.90
44705;DHT22;30431;48.520;9.046;2023-07-09T03:17:49;16.60;99.90
44705;DHT22;30431;48.520;9.046;2023-07-09T03:20:17;16.60;99.90
44705;DHT22;30431;48.520;9.046;2023-07-09T03:22:44;16.50;99.90
44705;DHT22;30431;48.520;9.046;2023-07-09T03:25:13;16.50;99.90
44705;DHT22;30431;48.520;9.046;2023-07-09T03:27:40;16.50;99.90
44705;DHT22;30431;48.520;9.046;2023-07-09T03:30:10;16.50;99.90
44705;DHT22;30431;48.520;9.046;2023-07-09T03:32:37;16.50;99.90
44705;DHT22;30431;48.520;9.046;2023-07-09T03:35:04;16.50;99.90
44705;DHT22;30431;48.520;9.046;2023-07-09T03:37:36;16.50;99.90
44705;DHT22;30431;48.520;9.046;2023-07-09T03:40:05;16.50;99.90
44705;DHT22;30431;48.520;9.046;2023-07-09T03:42:32;16.50;99.90
44705;DHT22;30431;48.520;9.046;2023-07-09T03:45:01;16.50;99.90
44705;DHT22;30431;48.520;9.046;2023-07-09T03:47:28;16.50;99.90
44705;DHT22;30431;48.520;9.046;2023-07-09T03:49:56;16.50;99.90
44705;DHT22;30431;48.520;9.046;2023-07-09T03:52:23;16.50;99.90
44705;DHT22;30431;48.520;9.046;2023-07-09T03:54:50;16.60;99.90
44705;DHT22;30431;48.520;9.046;2023-07-09T03:57:19;16.60;99.90
44705;DHT22;30431;48.520;9.046;2023-07-09T03:59:46;16.60;99.90
44705;DHT22;30431;48.520;9.046;2023-07-09T04:02:13;16.60;99.90
44705;DHT22;30431;48.520;9.046;2023-07-09T04:04:42;16.70;99.90
44705;DHT22;30431;48.520;9.046;2023-07-09T04:07:12;16.70;99.90
44705;DHT22;30431;48.520;9.046;2023-07-09T04:09:41;16.70;99.90
44705;DHT22;30431;48.520;9.046;2023-07-09T04:12:09;16.70;99.90
44705;DHT22;30431;48.520;9.046;2023-07-09T04:14:36;16.80;99.90
44705;DHT22;30431;48.520;9.046;2023-07-09T04:17:06;16.90;99.90
44705;DHT22;30431;48.520;9.046;2023-07-09T04:19:33;16.90;99.90
44705;DHT22;30431;48.520;9.046;2023-07-09T04:22:00;17.00;99.90
44705;DHT22;30431;48.520;9.046;2023-07-09T04:24:27;17.00;99.90
44705;DHT22;30431;48.520;9.046;2023-07-09T04:26:54;17.20;99.90
44705;DHT22;30431;48.520;9.046;2023-07-09T04:29:25;17.20;99.90
44705;DHT22;30431;48.520;9.046;2023-07-09T04:31:55;17.10;99.90
44705;DHT22;30431;48.520;9.046;2023-07-09T04:34:24;17.10;99.90
44705;DHT22;30431;48.520;9.046;2023-07-09T04:36:53;17.40;99.90
44705;DHT22;30431;48.520;9.046;2023-07-09T04:39:22;18.00;99.90
44705;DHT22;30431;48.520;9.046;2023-07-09T04:41:52;18.60;99.90
44705;DHT22;30431;48.520;9.046;2023-07-09T04:44:19;19.10;99.90
44705;DHT22;30431;48.520;9.046;2023-07-09T04:46:48;19.60;99.50
44705;DHT22;30431;48.520;9.046;2023-07-09T04:49:16;19.80;98.10
44705;DHT22;30431;48.520;9.046;2023-07-09T04:51:43;20.10;97.00
44705;DHT22;30431;48.520;9.046;2023-07-09T04:54:16;20.10;96.10
44705;DHT22;30431;48.520;9.046;2023-07-09T04:56:43;20.10;95.80
44705;DHT22;30431;48.520;9.046;2023-07-09T04:59:15;20.50;95.20
44705;DHT22;30431;48.520;9.046;2023-07-09T05:01:42;20.90;93.90
44705;DHT22;30431;48.520;9.046;2023-07-09T05:04:10;20.90;93.00
44705;DHT22;30431;48.520;9.046;2023-07-09T05:06:37;20.50;93.00
44705;DHT22;30431;48.520;9.046;2023-07-09T05:09:05;20.30;93.60
44705;DHT22;30431;48.520;9.046;2023-07-09T05:11:35;20.50;93.80
44705;DHT22;30431;48.520;9.046;2023-07-09T05:14:03;20.50;93.20
44705;DHT22;30431;48.520;9.046;2023-07-09T05:16:30;20.50;92.90
44705;DHT22;30431;48.520;9.046;2023-07-09T05:19:00;20.30;93.60
44705;DHT22;30431;48.520;9.046;2023-07-09T05:21:29;20.30;93.50
44705;DHT22;30431;48.520;9.046;2023-07-09T05:23:56;20.40;93.50
44705;DHT22;30431;48.520;9.046;2023-07-09T05:26:23;20.50;93.30
44705;DHT22;30431;48.520;9.046;2023-07-09T05:28:55;20.80;93.00
44705;DHT22;30431;48.520;9.046;2023-07-09T05:31:23;21.10;92.50
44705;DHT22;30431;48.520;9.046;2023-07-09T05:33:53;21.20;92.10
44705;DHT22;30431;48.520;9.046;2023-07-09T05:36:22;21.40;91.60
44705;DHT22;30431;48.520;9.046;2023-07-09T05:38:51;21.60;90.90
44705;DHT22;30431;48.520;9.046;2023-07-09T05:41:18;21.60;91.30
44705;DHT22;30431;48.520;9.046;2023-07-09T05:43:45;21.60;90.80
44705;DHT22;30431;48.520;9.046;2023-07-09T05:46:15;21.60;91.50
44705;DHT22;30431;48.520;9.046;2023-07-09T05:48:42;21.70;91.10
44705;DHT22;30431;48.520;9.046;2023-07-09T05:51:09;21.60;91.40
44705;DHT22;30431;48.520;9.046;2023-07-09T05:53:36;21.60;91.80
44705;DHT22;30431;48.520;9.046;2023-07-09T05:56:03;21.50;91.60
44705;DHT22;30431;48.520;9.046;2023-07-09T05:58:33;21.40;91.70
44705;DHT22;30431;48.520;9.046;2023-07-09T06:01:03;21.40;91.70
44705;DHT22;30431;48.520;9.046;2023-07-09T06:03:30;21.40;92.50
44705;DHT22;30431;48.520;9.046;2023-07-09T06:06:00;21.40;93.00
44705;DHT22;30431;48.520;9.046;2023-07-09T06:08:27;21.50;93.00
44705;DHT22;30431;48.520;9.046;2023-07-09T06:11:01;21.50;91.30
44705;DHT22;30431;48.520;9.046;2023-07-09T06:13:29;21.50;91.90
44705;DHT22;30431;48.520;9.046;2023-07-09T06:16:02;21.60;91.60
44705;DHT22;30431;48.520;9.046;2023-07-09T06:18:30;21.70;91.70
44705;DHT22;30431;48.520;9.046;2023-07-09T06:21:01;21.70;91.00
44705;DHT22;30431;48.520;9.046;2023-07-09T06:23:31;21.60;91.20
44705;DHT22;30431;48.520;9.046;2023-07-09T06:25:58;21.70;91.90
44705;DHT22;30431;48.520;9.046;2023-07-09T06:28:27;21.70;91.10
44705;DHT22;30431;48.520;9.046;2023-07-09T06:31:00;21.80;91.50
44705;DHT22;30431;48.520;9.046;2023-07-09T06:33:27;22.00;90.30
44705;DHT22;30431;48.520;9.046;2023-07-09T06:35:59;22.20;90.30
44705;DHT22;30431;48.520;9.046;2023-07-09T06:38:29;22.40;89.00
44705;DHT22;30431;48.520;9.046;2023-07-09T06:40:57;22.60;87.80
44705;DHT22;30431;48.520;9.046;2023-07-09T06:43:24;22.80;87.20
44705;DHT22;30431;48.520;9.046;2023-07-09T06:45:53;23.00;86.90
44705;DHT22;30431;48.520;9.046;2023-07-09T06:48:23;23.10;88.20
44705;DHT22;30431;48.520;9.046;2023-07-09T06:50:52;23.30;86.90
44705;DHT22;30431;48.520;9.046;2023-07-09T06:53:21;23.30;86.50
44705;DHT22;30431;48.520;9.046;2023-07-09T06:55:51;23.50;85.20
44705;DHT22;30431;48.520;9.046;2023-07-09T06:58:26;23.60;84.10
44705;DHT22;30431;48.520;9.046;2023-07-09T07:00:55;23.80;83.80
44705;DHT22;30431;48.520;9.046;2023-07-09T07:03:24;23.80;84.60
44705;DHT22;30431;48.520;9.046;2023-07-09T07:05:54;23.90;83.70
44705;DHT22;30431;48.520;9.046;2023-07-09T07:08:23;23.90;83.20
44705;DHT22;30431;48.520;9.046;2023-07-09T07:10:55;24.00;82.80
44705;DHT22;30431;48.520;9.046;2023-07-09T07:13:37;24.10;82.80
44705;DHT22;30431;48.520;9.046;2023-07-09T07:16:09;24.20;81.20
44705;DHT22;30431;48.520;9.046;2023-07-09T07:18:37;24.30;80.80
44705;DHT22;30431;48.520;9.046;2023-07-09T07:21:05;24.40;81.00
44705;DHT22;30431;48.520;9.046;2023-07-09T07:23:32;24.50;80.30
44705;DHT22;30431;48.520;9.046;2023-07-09T07:25:59;24.60;79.70
44705;DHT22;30431;48.520;9.046;2023-07-09T07:28:26;24.70;78.80
44705;DHT22;30431;48.520;9.046;2023-07-09T07:31:06;24.80;76.50
44705;DHT22;30431;48.520;9.046;2023-07-09T07:33:40;24.80;78.00
44705;DHT22;30431;48.520;9.046;2023-07-09T07:36:11;24.90;77.30
44705;DHT22;30431;48.520;9.046;2023-07-09T07:38:56;25.00;75.90
44705;DHT22;30431;48.520;9.046;2023-07-09T07:41:23;25.10;75.40
44705;DHT22;30431;48.520;9.046;2023-07-09T07:43:50;25.20;75.50
44705;DHT22;30431;48.520;9.046;2023-07-09T07:46:17;25.20;74.70
44705;DHT22;30431;48.520;9.046;2023-07-09T07:48:44;25.30;73.60
44705;DHT22;30431;48.520;9.046;2023-07-09T07:51:11;25.40;73.50
44705;DHT22;30431;48.520;9.046;2023-07-09T07:53:39;25.50;73.50
44705;DHT22;30431;48.520;9.046;2023-07-09T07:56:06;25.60;72.40
44705;DHT22;30431;48.520;9.046;2023-07-09T07:58:34;25.70;72.70
44705;DHT22;30431;48.520;9.046;2023-07-09T08:01:01;25.70;71.50
44705;DHT22;30431;48.520;9.046;2023-07-09T08:03:29;25.80;72.10
44705;DHT22;30431;48.520;9.046;2023-07-09T08:05:56;25.80;71.30
44705;DHT22;30431;48.520;9.046;2023-07-09T08:08:26;25.90;71.40
44705;DHT22;30431;48.520;9.046;2023-07-09T08:11:04;26.00;70.90
44705;DHT22;30431;48.520;9.046;2023-07-09T08:13:33;26.00;70.70
44705;DHT22;30431;48.520;9.046;2023-07-09T08:16:01;26.10;70.70
44705;DHT22;30431;48.520;9.046;2023-07-09T08:18:28;26.20;70.60
44705;DHT22;30431;48.520;9.046;2023-07-09T08:20:55;26.20;70.00
44705;DHT22;30431;48.520;9.046;2023-07-09T08:23:22;26.30;69.70
44705;DHT22;30431;48.520;9.046;2023-07-09T08:25:56;26.40;68.90
44705;DHT22;30431;48.520;9.046;2023-07-09T08:28:27;26.40;69.00
44705;DHT22;30431;48.520;9.046;2023-07-09T08:30:54;26.50;68.90
44705;DHT22;30431;48.520;9.046;2023-07-09T08:33:22;26.50;68.70
44705;DHT22;30431;48.520;9.046;2023-07-09T08:35:50;26.60;68.00
44705;DHT22;30431;48.520;9.046;2023-07-09T08:38:21;26.70;66.80
44705;DHT22;30431;48.520;9.046;2023-07-09T08:41:07;26.70;66.10
44705;DHT22;30431;48.520;9.046;2023-07-09T08:49:21;26.90;62.50
44705;DHT22;30431;48.520;9.046;2023-07-09T08:51:49;27.10;63.80
44705;DHT22;30431;48.520;9.046;2023-07-09T08:54:28;27.20;64.00
44705;DHT22;30431;48.520;9.046;2023-07-09T08:57:02;27.20;63.70
44705;DHT22;30431;48.520;9.046;2023-07-09T08:59:38;27.30;64.00
44705;DHT22;30431;48.520;9.046;2023-07-09T09:02:17;27.30;64.40
44705;DHT22;30431;48.520;9.046;2023-07-09T09:04:49;27.30;61.80
44705;DHT22;30431;48.520;9.046;2023-07-09T09:07:27;27.30;63.40
44705;DHT22;30431;48.520;9.046;2023-07-09T09:10:01;27.40;63.00
44705;DHT22;30431;48.520;9.046;2023-07-09T09:12:48;27.50;60.50
44705;DHT22;30431;48.520;9.046;2023-07-09T09:18:44;27.70;58.50
44705;DHT22;30431;48.520;9.046;2023-07-09T09:23:54;27.90;58.00
44705;DHT22;30431;48.520;9.046;2023-07-09T09:26:35;28.00;55.70
44705;DHT22;30431;48.520;9.046;2023-07-09T09:29:11;28.20;54.10
44705;DHT22;30431;48.520;9.046;2023-07-09T09:31:39;28.30;55.20
44705;DHT22;30431;48.520;9.046;2023-07-09T09:34:20;28.30;53.50
44705;DHT22;30431;48.520;9.046;2023-07-09T09:36:48;28.40;55.50
44705;DHT22;30431;48.520;9.046;2023-07-09T09:39:16;28.40;56.90
44705;DHT22;30431;48.520;9.046;2023-07-09T09:41:46;28.40;54.70
44705;DHT22;30431;48.520;9.046;2023-07-09T09:44:24;28.60;54.40
44705;DHT22;30431;48.520;9.046;2023-07-09T09:46:52;28.70;51.40
44705;DHT22;30431;48.520;9.046;2023-07-09T09:49:24;28.70;55.60
44705;DHT22;30431;48.520;9.046;2023-07-09T09:51:53;28.60;53.30
44705;DHT22;30431;48.520;9.046;2023-07-09T09:54:28;28.60;53.40
44705;DHT22;30431;48.520;9.046;2023-07-09T09:56:57;28.60;53.40
44705;DHT22;30431;48.520;9.046;2023-07-09T09:59:27;28.70;54.50
44705;DHT22;30431;48.520;9.046;2023-07-09T10:02:01;28.60;54.60
44705;DHT22;30431;48.520;9.046;2023-07-09T10:04:28;28.60;54.70
44705;DHT22;30431;48.520;9.046;2023-07-09T10:07:00;28.70;54.40
44705;DHT22;30431;48.520;9.046;2023-07-09T10:15:25;28.70;54.70
44705;DHT22;30431;48.520;9.046;2023-07-09T10:18:19;28.60;54.70
44705;DHT22;30431;48.520;9.046;2023-07-09T10:21:14;28.60;54.60
44705;DHT22;30431;48.520;9.046;2023-07-09T10:26:52;28.90;53.30
44705;DHT22;30431;48.520;9.046;2023-07-09T10:31:50;29.20;54.10
44705;DHT22;30431;48.520;9.046;2023-07-09T10:39:34;29.30;52.90
44705;DHT22;30431;48.520;9.046;2023-07-09T10:42:12;29.10;53.80
44705;DHT22;30431;48.520;9.046;2023-07-09T10:44:42;28.90;53.00
44705;DHT22;30431;48.520;9.046;2023-07-09T10:47:31;29.00;53.70
44705;DHT22;30431;48.520;9.046;2023-07-09T10:50:04;29.00;53.60
44705;DHT22;30431;48.520;9.046;2023-07-09T10:52:35;29.00;53.00
44705;DHT22;30431;48.520;9.046;2023-07-09T10:55:21;29.10;52.90
44705;DHT22;30431;48.520;9.046;2023-07-09T10:58:19;29.00;53.10
44705;DHT22;30431;48.520;9.046;2023-07-09T11:00:50;29.20;52.80
44705;DHT22;30431;48.520;9.046;2023-07-09T11:06:30;29.30;51.50
44705;DHT22;30431;48.520;9.046;2023-07-09T11:08:59;29.40;52.50
44705;DHT22;30431;48.520;9.046;2023-07-09T11:11:40;29.30;52.80
44705;DHT22;30431;48.520;9.046;2023-07-09T11:17:01;29.50;52.00
44705;DHT22;30431;48.520;9.046;2023-07-09T11:19:31;29.60;51.90
44705;DHT22;30431;48.520;9.046;2023-07-09T11:25:06;29.80;50.70
44705;DHT22;30431;48.520;9.046;2023-07-09T11:28:02;30.00;47.60
44705;DHT22;30431;48.520;9.046;2023-07-09T11:30:30;30.30;46.40
44705;DHT22;30431;48.520;9.046;2023-07-09T11:33:03;30.50;49.00
44705;DHT22;30431;48.520;9.046;2023-07-09T11:35:52;30.40;46.60
44705;DHT22;30431;48.520;9.046;2023-07-09T11:38:24;31.10;44.60
44705;DHT22;30431;48.520;9.046;2023-07-09T11:40:53;31.60;43.70
44705;DHT22;30431;48.520;9.046;2023-07-09T11:43:47;31.90;41.20
44705;DHT22;30431;48.520;9.046;2023-07-09T11:46:18;32.20;41.40
44705;DHT22;30431;48.520;9.046;2023-07-09T11:48:48;32.40;39.50
44705;DHT22;30431;48.520;9.046;2023-07-09T11:51:40;32.60;39.70
44705;DHT22;30431;48.520;9.046;2023-07-09T11:54:14;32.80;39.20
44705;DHT22;30431;48.520;9.046;2023-07-09T11:56:52;32.90;37.60
44705;DHT22;30431;48.520;9.046;2023-07-09T11:59:22;33.00;36.70
44705;DHT22;30431;48.520;9.046;2023-07-09T12:01:50;33.10;37.30
44705;DHT22;30431;48.520;9.046;2023-07-09T12:04:34;33.20;38.00
44705;DHT22;30431;48.520;9.046;2023-07-09T12:07:03;33.30;36.20
44705;DHT22;30431;48.520;9.046;2023-07-09T12:09:43;33.50;36.00
44705;DHT22;30431;48.520;9.046;2023-07-09T12:12:21;33.60;35.50
44705;DHT22;30431;48.520;9.046;2023-07-09T12:14:54;33.80;35.10
44705;DHT22;30431;48.520;9.046;2023-07-09T12:17:27;33.90;35.60
44705;DHT22;30431;48.520;9.046;2023-07-09T12:19:59;33.90;33.20
44705;DHT22;30431;48.520;9.046;2023-07-09T12:22:29;34.00;31.40
44705;DHT22;30431;48.520;9.046;2023-07-09T12:24:58;34.00;31.50
44705;DHT22;30431;48.520;9.046;2023-07-09T12:27:31;34.10;31.40
44705;DHT22;30431;48.520;9.046;2023-07-09T12:30:11;34.10;32.40
44705;DHT22;30431;48.520;9.046;2023-07-09T12:32:47;34.20;31.80
44705;DHT22;30431;48.520;9.046;2023-07-09T12:35:16;34.20;30.70
44705;DHT22;30431;48.520;9.046;2023-07-09T12:37:44;34.10;30.00
44705;DHT22;30431;48.520;9.046;2023-07-09T12:40:21;34.10;30.00
44705;DHT22;30431;48.520;9.046;2023-07-09T12:42:49;34.00;30.00
44705;DHT22;30431;48.520;9.046;2023-07-09T12:45:18;34.10;29.40
44705;DHT22;30431;48.520;9.046;2023-07-09T12:47:47;34.20;29.10
44705;DHT22;30431;48.520;9.046;2023-07-09T12:50:27;34.30;28.90
44705;DHT22;30431;48.520;9.046;2023-07-09T12:56:02;34.30;28.80
44705;DHT22;30431;48.520;9.046;2023-07-09T12:58:31;34.40;29.80
44705;DHT22;30431;48.520;9.046;2023-07-09T13:01:05;34.30;29.20
44705;DHT22;30431;48.520;9.046;2023-07-09T13:03:34;34.40;29.40
44705;DHT22;30431;48.520;9.046;2023-07-09T13:06:05;34.40;29.10
44705;DHT22;30431;48.520;9.046;2023-07-09T13:08:41;34.50;29.10
44705;DHT22;30431;48.520;9.046;2023-07-09T13:11:16;34.40;29.00
44705;DHT22;30431;48.520;9.046;2023-07-09T13:13:57;34.30;29.70
44705;DHT22;30431;48.520;9.046;2023-07-09T13:16:27;34.20;29.50
44705;DHT22;30431;48.520;9.046;2023-07-09T13:18:56;34.00;28.90
44705;DHT22;30431;48.520;9.046;2023-07-09T13:21:23;33.90;28.20
44705;DHT22;30431;48.520;9.046;2023-07-09T13:23:53;33.90;28.30
44705;DHT22;30431;48.520;9.046;2023-07-09T13:26:22;33.90;29.80
44705;DHT22;30431;48.520;9.046;2023-07-09T13:28:49;33.90;30.80
44705;DHT22;30431;48.520;9.046;2023-07-09T13:31:20;34.00;28.50
44705;DHT22;30431;48.520;9.046;2023-07-09T13:33:52;34.20;29.00
44705;DHT22;30431;48.520;9.046;2023-07-09T13:36:23;34.20;29.20
44705;DHT22;30431;48.520;9.046;2023-07-09T13:38:50;34.10;29.00
44705;DHT22;30431;48.520;9.046;2023-07-09T13:41:19;34.00;29.60
44705;DHT22;30431;48.520;9.046;2023-07-09T13:43:49;33.90;28.80
44705;DHT22;30431;48.520;9.046;2023-07-09T13:46:16;33.90;28.30
44705;DHT22;30431;48.520;9.046;2023-07-09T13:48:44;33.90;29.10
44705;DHT22;30431;48.520;9.046;2023-07-09T13:51:20;34.00;28.10
44705;DHT22;30431;48.520;9.046;2023-07-09T13:53:54;34.10;28.80
44705;DHT22;30431;48.520;9.046;2023-07-09T13:56:22;34.20;29.20
44705;DHT22;30431;48.520;9.046;2023-07-09T13:58:52;34.40;29.50
44705;DHT22;30431;48.520;9.046;2023-07-09T14:01:26;34.50;29.10
44705;DHT22;30431;48.520;9.046;2023-07-09T14:03:59;34.60;28.80
44705;DHT22;30431;48.520;9.046;2023-07-09T14:06:29;34.70;28.80
44705;DHT22;30431;48.520;9.046;2023-07-09T14:08:56;34.70;28.80
44705;DHT22;30431;48.520;9.046;2023-07-09T14:11:25;34.70;28.70
44705;DHT22;30431;48.520;9.046;2023-07-09T14:13:52;34.80;28.00
44705;DHT22;30431;48.520;9.046;2023-07-09T14:16:20;34.80;27.60
44705;DHT22;30431;48.520;9.046;2023-07-09T14:18:47;34.80;28.70
44705;DHT22;30431;48.520;9.046;2023-07-09T14:21:17;34.80;27.70
44705;DHT22;30431;48.520;9.046;2023-07-09T14:23:45;34.80;28.10
44705;DHT22;30431;48.520;9.046;2023-07-09T14:26:12;34.80;28.50
44705;DHT22;30431;48.520;9.046;2023-07-09T14:28:42;34.80;28.20
44705;DHT22;30431;48.520;9.046;2023-07-09T14:31:29;34.90;29.30
44705;DHT22;30431;48.520;9.046;2023-07-09T14:34:21;34.90;28.40
44705;DHT22;30431;48.520;9.046;2023-07-09T14:36:52;34.90;27.70
44705;DHT22;30431;48.520;9.046;2023-07-09T14:39:22;35.00;26.90
44705;DHT22;30431;48.520;9.046;2023-07-09T14:41:50;35.10;26.90
44705;DHT22;30431;48.520;9.046;2023-07-09T14:44:30;35.20;28.30
44705;DHT22;30431;48.520;9.046;2023-07-09T14:46:59;35.20;27.10
44705;DHT22;30431;48.520;9.046;2023-07-09T14:49:26;35.30;27.20
44705;DHT22;30431;48.520;9.046;2023-07-09T14:51:57;35.20;27.60
44705;DHT22;30431;48.520;9.046;2023-07-09T14:54:28;35.20;27.20
44705;DHT22;30431;48.520;9.046;2023-07-09T14:56:58;35.10;28.00
44705;DHT22;30431;48.520;9.046;2023-07-09T14:59:26;34.90;27.60
44705;DHT22;30431;48.520;9.046;2023-07-09T15:01:53;34.90;27.60
44705;DHT22;30431;48.520;9.046;2023-07-09T15:06:50;34.80;28.10
44705;DHT22;30431;48.520;9.046;2023-07-09T15:09:28;34.70;26.60
44705;DHT22;30431;48.520;9.046;2023-07-09T15:11:58;34.80;27.00
44705;DHT22;30431;48.520;9.046;2023-07-09T15:14:28;34.90;27.40
44705;DHT22;30431;48.520;9.046;2023-07-09T15:16:55;34.90;33.50
44705;DHT22;30431;48.520;9.046;2023-07-09T15:19:27;34.10;35.10
44705;DHT22;30431;48.520;9.046;2023-07-09T15:21:54;33.60;36.40
44705;DHT22;30431;48.520;9.046;2023-07-09T15:24:28;33.20;39.50
44705;DHT22;30431;48.520;9.046;2023-07-09T15:26:59;32.80;39.50
44705;DHT22;30431;48.520;9.046;2023-07-09T15:29:31;32.70;34.80
44705;DHT22;30431;48.520;9.046;2023-07-09T15:31:59;33.00;36.80
44705;DHT22;30431;48.520;9.046;2023-07-09T15:34:26;33.00;37.50
44705;DHT22;30431;48.520;9.046;2023-07-09T15:37:01;32.90;38.30
44705;DHT22;30431;48.520;9.046;2023-07-09T15:39:31;32.80;38.10
44705;DHT22;30431;48.520;9.046;2023-07-09T15:42:08;32.80;36.40
44705;DHT22;30431;48.520;9.046;2023-07-09T15:44:40;33.50;30.60
44705;DHT22;30431;48.520;9.046;2023-07-09T15:47:16;33.60;34.60
44705;DHT22;30431;48.520;9.046;2023-07-09T15:49:44;33.70;34.20
44705;DHT22;30431;48.520;9.046;2023-07-09T15:52:12;33.50;34.30
44705;DHT22;30431;48.520;9.046;2023-07-09T15:54:40;33.50;31.70
44705;DHT22;30431;48.520;9.046;2023-07-09T15:57:13;33.50;32.60
44705;DHT22;30431;48.520;9.046;2023-07-09T15:59:49;33.40;34.70
44705;DHT22;30431;48.520;9.046;2023-07-09T16:02:16;33.30;32.60
44705;DHT22;30431;48.520;9.046;2023-07-09T16:04:46;33.10;32.10
44705;DHT22;30431;48.520;9.046;2023-07-09T16:07:15;32.80;32.90
44705;DHT22;30431;48.520;9.046;2023-07-09T16:09:42;32.80;31.00
44705;DHT22;30431;48.520;9.046;2023-07-09T16:12:13;32.70;31.50
44705;DHT22;30431;48.520;9.046;2023-07-09T16:14:42;32.50;34.60
44705;DHT22;30431;48.520;9.046;2023-07-09T16:17:12;32.20;36.10
44705;DHT22;30431;48.520;9.046;2023-07-09T16:19:39;31.90;37.10
44705;DHT22;30431;48.520;9.046;2023-07-09T16:22:06;31.50;37.60
44705;DHT22;30431;48.520;9.046;2023-07-09T16:24:35;31.30;38.20
44705;DHT22;30431;48.520;9.046;2023-07-09T16:27:06;31.10;38.80
44705;DHT22;30431;48.520;9.046;2023-07-09T16:29:35;31.00;38.90
44705;DHT22;30431;48.520;9.046;2023-07-09T16:32:02;30.80;40.00
44705;DHT22;30431;48.520;9.046;2023-07-09T16:34:31;30.70;39.20
44705;DHT22;30431;48.520;9.046;2023-07-09T16:36:58;30.70;40.10
44705;DHT22;30431;48.520;9.046;2023-07-09T16:41:56;30.50;40.50
44705;DHT22;30431;48.520;9.046;2023-07-09T16:44:24;30.40;40.40